createdAt,value
2024-01-29T00:01:57.000Z,7.00
2024-01-29T00:04:27.512Z,7.00
2024-01-29T00:06:58.002Z,6.80
2024-01-29T00:09:32.091Z,6.80
2024-01-29T00:12:05.002Z,6.50
2024-01-29T00:14:35.417Z,6.50
2024-01-29T00:17:06.966Z,6.70
2024-01-29T00:19:37.772Z,6.70
2024-01-29T00:22:08.624Z,6.80
2024-01-29T00:24:42.336Z,6.80
2024-01-29T00:27:12.802Z,6.80
2024-01-29T00:29:43.441Z,6.80
2024-01-29T00:32:13.653Z,6.90
2024-01-29T00:34:48.082Z,6.80
2024-01-29T00:37:18.714Z,7.00
2024-01-29T00:39:51.999Z,7.00
2024-01-29T00:42:22.611Z,7.00
2024-01-29T00:44:54.366Z,6.80
2024-01-29T00:47:24.940Z,7.10
2024-01-29T00:49:55.986Z,7.10
2024-01-29T00:52:26.723Z,7.10
2024-01-29T00:54:59.758Z,7.10
2024-01-29T00:57:30.033Z,7.10
2024-01-29T01:00:00.618Z,7.10
2024-01-29T01:02:31.608Z,7.40
2024-01-29T01:05:01.911Z,7.30
2024-01-29T01:07:33.734Z,7.40
2024-01-29T01:10:07.163Z,7.70
2024-01-29T01:12:38.236Z,7.40
2024-01-29T01:15:13.281Z,7.40
2024-01-29T01:17:44.368Z,7.40
2024-01-29T01:20:15.633Z,7.40
2024-01-29T01:22:46.485Z,7.80
2024-01-29T01:25:19.929Z,7.70
2024-01-29T01:27:55.670Z,7.30
2024-01-29T01:30:27.406Z,7.10
2024-01-29T01:32:57.806Z,7.10
2024-01-29T01:35:30.925Z,7.20
2024-01-29T01:38:01.231Z,7.50
2024-01-29T01:40:36.468Z,7.30
2024-01-29T01:43:18.634Z,7.10
2024-01-29T01:45:49.577Z,6.80
2024-01-29T01:48:19.906Z,7.00
2024-01-29T01:50:50.922Z,7.00
2024-01-29T01:53:21.384Z,7.00
2024-01-29T01:55:54.758Z,7.00
2024-01-29T01:58:28.526Z,6.80
2024-01-29T02:01:00.660Z,6.80
2024-01-29T02:03:32.095Z,7.00
2024-01-29T02:06:02.620Z,7.00
2024-01-29T02:08:33.910Z,6.90
2024-01-29T02:11:07.157Z,6.80
2024-01-29T02:13:39.332Z,6.90
2024-01-29T02:16:10.184Z,6.90
2024-01-29T02:18:41.179Z,7.00
2024-01-29T02:21:11.746Z,6.80
2024-01-29T02:23:48.697Z,6.80
2024-01-29T02:26:19.152Z,6.70
2024-01-29T02:28:50.172Z,6.70
2024-01-29T02:31:20.520Z,6.70
2024-01-29T02:33:51.168Z,6.80
2024-01-29T02:36:22.529Z,6.90
2024-01-29T02:38:56.269Z,6.80
2024-01-29T02:41:27.133Z,6.50
2024-01-29T02:43:57.483Z,6.50
2024-01-29T02:46:28.042Z,6.60
2024-01-29T02:48:58.633Z,6.50
2024-01-29T02:51:29.342Z,6.40
2024-01-29T02:54:03.982Z,6.70
2024-01-29T02:56:35.203Z,6.70
2024-01-29T02:59:09.126Z,6.80
2024-01-29T03:01:39.991Z,6.80
2024-01-29T03:04:13.460Z,6.80
2024-01-29T03:06:44.145Z,6.80
2024-01-29T03:09:18.954Z,7.00
2024-01-29T03:11:51.368Z,7.20
2024-01-29T03:14:23.913Z,7.10
2024-01-29T03:16:56.629Z,7.20
2024-01-29T03:19:28.070Z,7.10
2024-01-29T03:21:58.466Z,7.40
2024-01-29T03:24:32.723Z,7.20
2024-01-29T03:27:03.325Z,7.20
2024-01-29T03:29:34.584Z,7.20
2024-01-29T03:32:05.618Z,7.10
2024-01-29T03:34:38.688Z,7.10
2024-01-29T03:37:10.193Z,7.00
2024-01-29T03:39:43.856Z,7.10
2024-01-29T03:42:14.611Z,6.90
2024-01-29T03:44:44.991Z,6.70
2024-01-29T03:47:15.259Z,6.60
2024-01-29T03:49:49.114Z,6.90
2024-01-29T03:52:23.575Z,6.80
2024-01-29T03:54:59.692Z,6.80
2024-01-29T03:57:30.854Z,6.80
2024-01-29T04:00:01.004Z,6.80
2024-01-29T04:02:41.977Z,6.50
2024-01-29T04:05:14.320Z,6.50
2024-01-29T04:07:44.845Z,6.50
2024-01-29T04:10:29.564Z,6.20
2024-01-29T04:13:02.360Z,6.20
2024-01-29T04:15:33.302Z,6.10
2024-01-29T04:18:04.493Z,6.10
2024-01-29T04:20:38.093Z,6.20
2024-01-29T04:23:10.347Z,6.30
2024-01-29T04:25:43.476Z,6.10
2024-01-29T04:28:14.065Z,5.80
2024-01-29T04:30:44.851Z,5.80
2024-01-29T04:33:15.134Z,6.00
2024-01-29T04:35:48.034Z,5.80
2024-01-29T04:38:21.530Z,5.80
2024-01-29T04:40:54.995Z,5.80
2024-01-29T04:43:25.929Z,5.70
2024-01-29T04:45:59.058Z,6.00
2024-01-29T04:48:30.405Z,5.50
2024-01-29T04:51:00.853Z,5.70
2024-01-29T04:53:32.108Z,5.80
2024-01-29T04:56:11.097Z,5.90
2024-01-29T04:58:43.611Z,5.90
2024-01-29T05:01:16.658Z,5.70
2024-01-29T05:03:51.707Z,5.80
2024-01-29T05:06:24.079Z,5.90
2024-01-29T05:08:54.778Z,5.80
2024-01-29T05:11:35.668Z,5.80
2024-01-29T05:14:06.312Z,6.10
2024-01-29T05:16:36.978Z,5.80
2024-01-29T05:19:08.003Z,5.80
2024-01-29T05:21:39.678Z,5.80
2024-01-29T05:24:12.817Z,5.90
2024-01-29T05:26:46.578Z,5.80
2024-01-29T05:29:17.603Z,5.80
2024-01-29T05:31:47.744Z,5.80
2024-01-29T05:34:18.125Z,6.10
2024-01-29T05:36:49.359Z,6.00
2024-01-29T05:39:20.765Z,6.10
2024-01-29T05:41:54.484Z,6.00
2024-01-29T05:44:27.851Z,6.10
2024-01-29T05:46:58.067Z,6.10
2024-01-29T05:49:28.999Z,6.10
2024-01-29T05:52:01.851Z,6.40
2024-01-29T05:54:32.823Z,6.30
2024-01-29T05:57:08.815Z,6.20
2024-01-29T05:59:39.098Z,6.00
2024-01-29T06:02:15.924Z,5.90
2024-01-29T06:04:46.733Z,6.10
2024-01-29T06:07:26.052Z,6.00
2024-01-29T06:10:01.444Z,6.10
2024-01-29T06:12:42.806Z,5.70
2024-01-29T22:33:11.322Z,4.40
2024-01-29T22:35:41.374Z,4.30
2024-01-29T22:38:11.523Z,4.20
2024-01-29T22:40:41.467Z,4.20
2024-01-29T22:43:13.360Z,4.20
2024-01-29T22:45:43.991Z,4.40
2024-01-29T22:48:16.671Z,4.30
2024-01-29T22:50:47.025Z,4.40
2024-01-29T22:53:16.989Z,4.50
2024-01-29T22:55:47.208Z,4.40
2024-01-29T22:58:17.269Z,4.40
2024-01-29T23:00:51.259Z,4.60
2024-01-29T23:03:24.287Z,4.50
2024-01-29T23:05:54.260Z,4.30
2024-01-29T23:08:24.321Z,4.40
2024-01-29T23:10:54.341Z,4.40
2024-01-29T23:13:24.773Z,4.40
2024-01-29T23:15:55.597Z,4.00
2024-01-29T23:18:29.207Z,4.40
2024-01-29T23:20:59.925Z,4.00
2024-01-29T23:23:30.278Z,3.90
2024-01-29T23:26:00.766Z,4.20
2024-01-29T23:28:31.240Z,4.00
2024-01-29T23:31:01.221Z,4.00
2024-01-29T23:33:34.746Z,4.10
2024-01-29T23:36:04.814Z,4.10
2024-01-29T23:38:36.721Z,4.10
2024-01-29T23:41:06.895Z,4.20
2024-01-29T23:43:36.883Z,4.10
2024-01-29T23:46:07.332Z,4.40
2024-01-29T23:48:40.673Z,4.40
2024-01-29T23:51:13.105Z,4.60
2024-01-29T23:53:44.526Z,4.60
2024-01-29T23:56:14.892Z,4.90
2024-01-29T23:58:44.847Z,4.60
